createdAt,value
2022-09-15T00:01:27.824Z,88.42
2022-09-15T00:03:54.947Z,88.58
2022-09-15T00:06:22.052Z,88.45
2022-09-15T00:08:49.123Z,88.41
2022-09-15T00:11:20.269Z,88.25
2022-09-15T00:13:47.584Z,88.08
2022-09-15T00:16:15.822Z,88.03
2022-09-15T00:18:44.008Z,88.24
2022-09-15T00:21:16.704Z,88.32
2022-09-15T00:23:44.338Z,87.83
2022-09-15T00:26:13.773Z,88.19
2022-09-15T00:28:41.170Z,87.85
2022-09-15T00:31:11.629Z,88.36
2022-09-15T00:33:38.902Z,88.30
2022-09-15T00:36:08.505Z,88.30
2022-09-15T00:38:36.734Z,88.05
2022-09-15T00:41:05.098Z,88.50
2022-09-15T00:43:54.366Z,88.22
2022-09-15T00:46:25.850Z,87.79
2022-09-15T00:52:01.770Z,88.00
2022-09-15T00:54:36.088Z,87.90
2022-09-15T00:57:07.547Z,88.35
2022-09-15T00:59:37.556Z,88.34
2022-09-15T01:02:16.003Z,87.86
2022-09-15T01:04:43.417Z,88.10
2022-09-15T01:07:15.891Z,88.58
2022-09-15T01:09:51.372Z,88.23
2022-09-15T01:12:19.249Z,88.40
2022-09-15T01:14:46.329Z,87.99
2022-09-15T01:26:34.052Z,88.21
2022-09-15T01:34:20.117Z,88.42
2022-09-15T01:36:57.711Z,88.18
2022-09-15T01:39:26.654Z,89.00
2022-09-15T01:42:05.516Z,88.73
2022-09-15T01:44:42.640Z,88.21
2022-09-15T01:47:13.414Z,87.91
2022-09-15T01:49:50.706Z,88.52
2022-09-15T01:52:21.232Z,87.89
2022-09-15T01:54:52.395Z,88.58
2022-09-15T01:57:22.968Z,87.83
2022-09-15T01:59:51.618Z,88.39
2022-09-15T02:05:16.848Z,88.68
2022-09-15T02:10:45.150Z,88.45
2022-09-15T02:13:24.383Z,88.05
2022-09-15T02:15:57.189Z,87.96
2022-09-15T02:18:37.438Z,88.51
2022-09-15T02:21:12.955Z,88.89
2022-09-15T02:23:45.004Z,88.82
2022-09-15T02:26:17.912Z,89.05
2022-09-15T02:28:48.084Z,88.92
2022-09-15T02:31:18.236Z,88.61
2022-09-15T02:33:49.928Z,88.80
2022-09-15T02:36:20.114Z,88.38
2022-09-15T02:38:53.518Z,88.71
2022-09-15T02:41:20.913Z,89.01
2022-09-15T02:43:49.516Z,88.96
2022-09-15T02:46:20.406Z,88.69
2022-09-15T02:48:47.859Z,88.66
2022-09-15T02:51:16.617Z,88.70
2022-09-15T02:53:44.803Z,88.54
2022-09-15T02:56:12.267Z,89.02
2022-09-15T02:58:39.322Z,88.57
2022-09-15T03:01:07.673Z,88.69
2022-09-15T03:03:35.924Z,88.56
2022-09-15T03:06:21.771Z,88.30
2022-09-15T03:08:51.547Z,88.36
2022-09-15T03:11:21.147Z,88.79
2022-09-15T03:13:52.708Z,88.37
2022-09-15T03:16:20.293Z,88.75
2022-09-15T03:18:47.668Z,88.39
2022-09-15T03:21:16.451Z,88.68
2022-09-15T03:23:43.610Z,88.79
2022-09-15T03:26:11.753Z,88.76
2022-09-15T03:28:39.498Z,89.10
2022-09-15T03:31:08.409Z,88.98
2022-09-15T03:33:36.549Z,88.85
2022-09-15T03:36:03.776Z,88.96
2022-09-15T03:38:31.210Z,89.28
2022-09-15T03:41:08.182Z,89.02
2022-09-15T03:43:35.970Z,89.25
2022-09-15T03:46:06.401Z,89.34
2022-09-15T03:48:35.753Z,89.36
2022-09-15T03:51:04.600Z,88.71
2022-09-15T03:53:34.514Z,88.78
2022-09-15T03:56:11.436Z,88.83
2022-09-15T03:58:38.663Z,88.92
2022-09-15T04:01:05.860Z,88.66
2022-09-15T04:03:34.495Z,89.16
2022-09-15T04:06:03.961Z,89.44
2022-09-15T04:08:31.186Z,89.50
2022-09-15T04:10:58.587Z,88.77
2022-09-15T04:13:28.601Z,89.28
2022-09-15T04:16:07.138Z,89.37
2022-09-15T04:18:35.145Z,88.58
2022-09-15T04:21:05.825Z,88.58
2022-09-15T04:23:33.548Z,88.82
2022-09-15T04:26:05.202Z,88.43
2022-09-15T04:28:33.933Z,88.91
2022-09-15T04:31:10.162Z,88.49
2022-09-15T04:33:39.122Z,88.37
2022-09-15T04:36:09.494Z,88.32
2022-09-15T04:38:36.934Z,88.07
2022-09-15T04:41:05.063Z,88.70
2022-09-15T04:43:33.024Z,88.70
2022-09-15T04:46:00.169Z,88.37
2022-09-15T04:48:28.120Z,88.22
2022-09-15T04:50:55.251Z,88.13
2022-09-15T04:53:22.354Z,88.34
2022-09-15T04:55:49.417Z,88.49
2022-09-15T04:58:16.982Z,88.67
2022-09-15T05:00:44.131Z,88.28
2022-09-15T05:03:12.155Z,88.12
2022-09-15T05:05:40.349Z,88.06
2022-09-15T05:08:08.375Z,88.43
2022-09-15T05:10:35.722Z,88.70
2022-09-15T05:13:02.793Z,88.66
2022-09-15T05:15:30.017Z,88.24
2022-09-15T05:17:57.125Z,88.72
2022-09-15T05:20:24.379Z,88.59
2022-09-15T05:22:51.505Z,87.98
2022-09-15T05:25:18.551Z,88.54
2022-09-15T05:27:45.664Z,88.19
2022-09-15T05:32:59.986Z,88.04
2022-09-15T05:35:27.112Z,88.38
2022-09-15T05:37:54.192Z,87.72
2022-09-15T05:40:22.403Z,88.17
2022-09-15T05:42:49.554Z,87.91
2022-09-15T05:45:16.910Z,88.13
2022-09-15T05:47:43.982Z,88.37
2022-09-15T05:50:11.655Z,87.87
2022-09-15T05:52:38.706Z,88.37
2022-09-15T05:55:05.893Z,88.10
2022-09-15T05:57:33.385Z,87.84
2022-09-15T06:00:00.590Z,88.21
2022-09-15T06:02:27.769Z,87.93
2022-09-15T06:04:54.985Z,87.88
2022-09-15T06:07:22.038Z,88.22
2022-09-15T06:09:49.075Z,87.91
2022-09-15T06:12:18.179Z,88.37
2022-09-15T06:14:46.193Z,88.63
2022-09-15T06:17:13.269Z,88.32
2022-09-15T06:19:40.556Z,88.32
2022-09-15T06:22:08.057Z,88.19
2022-09-15T06:24:35.122Z,88.18
2022-09-15T06:27:02.271Z,87.97
2022-09-15T06:29:29.325Z,87.86
2022-09-15T06:31:57.402Z,88.02
2022-09-15T06:34:24.498Z,88.01
2022-09-15T06:36:51.578Z,88.39
2022-09-15T06:39:18.656Z,88.41
2022-09-15T06:42:01.679Z,88.16
2022-09-15T06:44:29.629Z,88.23
2022-09-15T06:46:56.752Z,88.24
2022-09-15T06:49:23.811Z,87.90
2022-09-15T06:51:50.921Z,88.28
2022-09-15T06:54:18.290Z,88.26
2022-09-15T06:56:45.488Z,87.88
2022-09-15T06:59:13.444Z,88.06
2022-09-15T07:01:41.274Z,88.40
2022-09-15T07:04:10.078Z,87.89
2022-09-15T07:06:39.364Z,87.74
2022-09-15T07:09:07.135Z,88.01
2022-09-15T07:11:34.333Z,88.03
2022-09-15T07:14:01.422Z,88.06
2022-09-15T07:16:28.514Z,87.71
2022-09-15T07:18:57.480Z,88.07
2022-09-15T07:21:24.936Z,87.84
2022-09-15T07:23:52.317Z,87.93
2022-09-15T07:26:22.968Z,87.64
2022-09-15T07:28:57.117Z,87.51
2022-09-15T07:31:27.232Z,87.55
2022-09-15T07:33:54.770Z,87.47
2022-09-15T07:36:22.178Z,87.45
2022-09-15T07:38:49.990Z,87.82
2022-09-15T07:41:20.200Z,88.15
2022-09-15T07:43:52.735Z,87.23
2022-09-15T07:46:21.200Z,87.60
2022-09-15T07:48:50.535Z,87.63
2022-09-15T07:51:18.816Z,87.08
2022-09-15T07:53:47.627Z,87.74
2022-09-15T07:56:18.182Z,87.32
2022-09-15T07:58:46.359Z,87.23
2022-09-15T08:01:15.283Z,87.10
2022-09-15T08:03:44.445Z,87.50
2022-09-15T08:06:12.211Z,86.89
2022-09-15T08:08:40.725Z,87.50
2022-09-15T08:11:12.238Z,86.93
2022-09-15T08:13:42.486Z,87.11
2022-09-15T08:16:12.228Z,86.76
2022-09-15T08:18:42.194Z,87.17
2022-09-15T08:21:14.377Z,87.38
2022-09-15T08:23:41.665Z,86.84
2022-09-15T08:26:13.834Z,86.49
2022-09-15T08:28:42.604Z,86.44
2022-09-15T08:31:11.834Z,86.60
2022-09-15T08:33:44.599Z,86.02
2022-09-15T08:36:13.573Z,86.27
2022-09-15T08:38:42.225Z,86.03
2022-09-15T08:46:43.062Z,85.58
2022-09-15T08:49:35.551Z,85.90
2022-09-15T08:52:16.681Z,85.80
2022-09-15T08:54:44.034Z,85.41
2022-09-15T08:57:17.165Z,85.44
2022-09-15T08:59:44.862Z,85.10
2022-09-15T09:05:11.420Z,85.11
2022-09-15T09:11:02.412Z,85.42
2022-09-15T09:19:15.398Z,85.21
2022-09-15T09:21:47.890Z,85.20
2022-09-15T09:24:18.990Z,85.26
2022-09-15T09:26:54.498Z,84.63
2022-09-15T09:29:33.033Z,85.77
2022-09-15T09:32:01.567Z,85.21
2022-09-15T09:37:13.664Z,84.66
2022-09-15T09:39:41.285Z,84.81
2022-09-15T09:42:15.673Z,84.99
2022-09-15T09:44:43.054Z,84.53
2022-09-15T09:47:10.424Z,84.67
2022-09-15T09:49:43.459Z,84.86
2022-09-15T09:52:10.829Z,84.64
2022-09-15T09:54:38.241Z,85.19
2022-09-15T09:57:27.246Z,84.83
2022-09-15T09:59:54.712Z,85.11
2022-09-15T10:02:27.546Z,84.27
2022-09-15T10:07:49.232Z,85.25
2022-09-15T10:10:28.766Z,84.80
2022-09-15T10:12:57.100Z,84.70
2022-09-15T10:15:30.574Z,85.27
2022-09-15T10:17:58.302Z,84.36
2022-09-15T10:20:32.903Z,85.43
2022-09-15T10:31:49.403Z,84.35
2022-09-15T10:34:32.836Z,84.05
2022-09-15T10:37:12.045Z,84.55
2022-09-15T10:42:53.147Z,84.42
2022-09-15T10:45:27.235Z,84.33
2022-09-15T10:48:23.766Z,84.62
2022-09-15T10:56:30.954Z,84.68
2022-09-15T10:59:28.332Z,84.33
2022-09-15T11:12:56.956Z,82.85
2022-09-15T11:16:03.807Z,82.83
2022-09-15T11:26:49.584Z,82.79
2022-09-15T11:34:46.674Z,82.55
2022-09-15T11:37:21.746Z,82.58
2022-09-15T11:40:03.993Z,82.46
2022-09-15T11:42:38.375Z,82.06
2022-09-15T11:45:14.920Z,82.35
2022-09-15T11:47:48.007Z,82.71
2022-09-15T11:50:35.224Z,82.13
2022-09-15T11:53:28.539Z,82.34
2022-09-15T11:56:06.120Z,81.32
2022-09-15T12:06:49.649Z,80.72
2022-09-15T12:09:18.804Z,81.10
2022-09-15T12:11:48.957Z,80.63
2022-09-15T12:14:27.264Z,80.39
2022-09-15T12:16:55.029Z,80.54
2022-09-15T12:19:54.076Z,79.88
2022-09-15T12:22:29.756Z,80.16
2022-09-15T12:27:36.919Z,79.95
2022-09-15T12:30:06.296Z,80.49
2022-09-15T12:32:35.580Z,80.76
2022-09-15T12:40:39.566Z,81.14
2022-09-15T12:46:01.263Z,80.67
2022-09-15T12:48:35.065Z,80.43
2022-09-15T12:51:10.695Z,80.84
2022-09-15T12:54:01.122Z,81.04
2022-09-15T12:56:31.483Z,80.60
2022-09-15T12:59:11.537Z,80.58
2022-09-15T13:01:49.165Z,79.89
2022-09-15T13:04:44.230Z,80.02
2022-09-15T13:10:20.328Z,79.98
2022-09-15T13:12:55.523Z,80.20
2022-09-15T13:15:25.562Z,80.40
2022-09-15T13:17:54.813Z,80.07
2022-09-15T13:20:33.056Z,80.06
2022-09-15T13:23:02.103Z,79.98
2022-09-15T13:25:31.023Z,79.88
2022-09-15T13:28:02.153Z,80.34
2022-09-15T13:47:07.012Z,79.65
2022-09-15T14:03:51.051Z,80.52
2022-09-15T14:06:30.525Z,79.75
2022-09-15T14:09:04.796Z,79.48
2022-09-15T14:11:35.026Z,80.42
2022-09-15T14:14:03.241Z,80.12
2022-09-15T14:16:34.800Z,80.33
2022-09-15T14:19:21.295Z,80.61
2022-09-15T14:21:49.422Z,80.20
2022-09-15T14:24:25.657Z,80.01
2022-09-15T14:26:52.956Z,80.44
2022-09-15T14:29:24.627Z,80.43
2022-09-15T14:31:52.143Z,80.36
2022-09-15T14:34:23.612Z,80.19
2022-09-15T14:37:15.108Z,81.27
2022-09-15T14:39:50.255Z,80.56
2022-09-15T14:42:22.953Z,81.34
2022-09-15T14:47:40.358Z,81.10
2022-09-15T14:50:14.922Z,80.77
2022-09-15T14:52:47.380Z,81.44
2022-09-15T14:55:28.291Z,80.73
2022-09-15T14:58:08.174Z,80.91
2022-09-15T15:00:54.611Z,81.46
2022-09-15T15:03:34.261Z,80.92
2022-09-15T15:09:04.090Z,81.45
2022-09-15T15:11:33.517Z,81.52
2022-09-15T15:14:01.186Z,81.65
2022-09-15T15:16:31.155Z,81.37
2022-09-15T15:18:58.507Z,82.11
2022-09-15T15:21:45.590Z,81.70
2022-09-15T15:26:51.361Z,81.83
2022-09-15T15:29:44.070Z,82.06
2022-09-15T15:37:31.168Z,82.17
2022-09-15T15:40:02.077Z,81.82
2022-09-15T15:42:30.250Z,82.40
2022-09-15T15:45:05.399Z,82.50
2022-09-15T15:47:36.780Z,82.67
2022-09-15T15:50:25.568Z,82.92
2022-09-15T15:52:53.587Z,83.05
2022-09-15T15:57:58.690Z,82.75
2022-09-15T16:00:33.040Z,82.96
2022-09-15T16:03:00.189Z,83.05
2022-09-15T16:05:29.525Z,83.46
2022-09-15T16:07:59.813Z,83.09
2022-09-15T16:10:33.242Z,82.73
2022-09-15T16:13:00.297Z,82.87
2022-09-15T16:15:27.447Z,83.32
2022-09-15T16:17:54.553Z,83.27
2022-09-15T16:20:24.637Z,83.44
2022-09-15T16:22:52.458Z,83.37
2022-09-15T16:28:00.917Z,83.88
2022-09-15T16:30:28.803Z,84.16
2022-09-15T16:32:56.101Z,83.91
2022-09-15T16:35:46.195Z,83.52
2022-09-15T16:38:13.335Z,83.38
2022-09-15T16:40:40.409Z,83.94
2022-09-15T16:43:12.690Z,83.70
2022-09-15T16:45:41.018Z,84.19
2022-09-15T16:48:09.700Z,83.85
2022-09-15T16:50:39.835Z,83.54
2022-09-15T16:53:23.917Z,83.58
2022-09-15T16:55:52.596Z,84.40
2022-09-15T16:58:20.867Z,84.34
2022-09-15T17:00:50.181Z,83.76
2022-09-15T17:03:21.024Z,83.86
2022-09-15T17:05:50.420Z,83.83
2022-09-15T17:08:19.616Z,84.42
2022-09-15T17:10:47.765Z,84.08
2022-09-15T17:13:17.806Z,83.85
2022-09-15T17:15:46.554Z,84.57
2022-09-15T17:18:15.750Z,84.70
2022-09-15T17:20:44.633Z,84.49
2022-09-15T17:26:10.955Z,84.47
2022-09-15T17:28:38.520Z,84.01
2022-09-15T17:31:12.355Z,84.26
2022-09-15T17:33:40.176Z,84.02
2022-09-15T17:36:08.045Z,84.16
2022-09-15T17:38:35.485Z,84.17
2022-09-15T17:41:02.944Z,84.47
2022-09-15T17:43:31.342Z,84.45
2022-09-15T17:45:59.017Z,84.45
2022-09-15T17:48:26.345Z,84.69
2022-09-15T17:50:53.533Z,84.74
2022-09-15T17:53:23.126Z,84.77
2022-09-15T17:55:51.114Z,84.32
2022-09-15T17:58:18.899Z,84.22
2022-09-15T18:00:47.377Z,84.13
2022-09-15T18:03:27.781Z,84.56
2022-09-15T18:05:58.735Z,84.37
2022-09-15T18:08:27.198Z,85.17
2022-09-15T18:10:55.216Z,84.47
2022-09-15T18:13:24.958Z,84.12
2022-09-15T18:15:52.140Z,84.60
2022-09-15T18:18:22.118Z,84.67
2022-09-15T18:20:50.072Z,84.38
2022-09-15T18:23:20.143Z,84.94
2022-09-15T18:25:48.066Z,84.50
2022-09-15T18:28:15.953Z,84.71
2022-09-15T18:30:45.214Z,84.78
2022-09-15T18:33:16.191Z,84.74
2022-09-15T18:35:44.284Z,84.46
2022-09-15T18:38:13.873Z,84.56
2022-09-15T18:40:51.098Z,84.51
2022-09-15T18:43:18.251Z,84.95
2022-09-15T18:45:45.791Z,84.92
2022-09-15T18:48:13.480Z,85.14
2022-09-15T18:50:41.770Z,85.25
2022-09-15T18:53:09.279Z,85.00
2022-09-15T18:55:36.537Z,84.92
2022-09-15T18:58:03.821Z,84.96
2022-09-15T19:00:32.028Z,85.03
2022-09-15T19:03:02.084Z,84.68
2022-09-15T19:05:30.819Z,84.39
2022-09-15T19:07:58.272Z,84.94
2022-09-15T19:10:27.118Z,84.85
2022-09-15T19:12:54.523Z,84.71
2022-09-15T19:15:25.229Z,84.96
2022-09-15T19:17:52.423Z,85.15
2022-09-15T19:20:19.742Z,85.33
2022-09-15T19:22:47.668Z,84.81
2022-09-15T19:25:14.949Z,85.19
2022-09-15T19:27:42.194Z,85.10
2022-09-15T19:30:10.751Z,85.07
2022-09-15T19:32:39.444Z,85.73
2022-09-15T19:35:08.066Z,85.23
2022-09-15T19:37:38.467Z,85.27
2022-09-15T19:40:09.292Z,84.87
2022-09-15T19:42:38.796Z,85.52
2022-09-15T19:45:08.312Z,85.29
2022-09-15T19:47:35.756Z,85.35
2022-09-15T19:50:03.615Z,85.38
2022-09-15T19:52:30.731Z,84.90
2022-09-15T19:54:57.855Z,85.00
2022-09-15T19:57:25.071Z,85.24
2022-09-15T19:59:52.171Z,85.35
2022-09-15T20:02:20.201Z,85.30
2022-09-15T20:04:47.941Z,85.28
2022-09-15T20:07:15.074Z,85.34
2022-09-15T20:09:42.455Z,85.42
2022-09-15T20:12:09.682Z,85.71
2022-09-15T20:14:36.865Z,85.78
2022-09-15T20:17:04.391Z,85.43
2022-09-15T20:19:31.612Z,85.58
2022-09-15T20:21:58.999Z,85.71
2022-09-15T20:24:26.217Z,86.04
2022-09-15T20:26:53.418Z,86.17
2022-09-15T20:29:20.892Z,85.93
2022-09-15T20:31:48.850Z,85.73
2022-09-15T20:34:16.793Z,85.91
2022-09-15T20:36:44.759Z,85.71
2022-09-15T20:39:14.927Z,85.75
2022-09-15T20:41:45.327Z,85.55
2022-09-15T20:44:12.695Z,85.55
2022-09-15T20:46:40.183Z,85.90
2022-09-15T20:49:07.954Z,85.55
2022-09-15T20:51:35.514Z,85.97
2022-09-15T20:54:04.469Z,85.43
2022-09-15T20:56:35.279Z,85.45
2022-09-15T20:59:04.668Z,85.88
2022-09-15T21:01:37.041Z,85.42
2022-09-15T21:04:05.471Z,85.57
2022-09-15T21:06:32.748Z,85.34
2022-09-15T21:09:00.603Z,85.00
2022-09-15T21:11:29.415Z,85.89
2022-09-15T21:13:57.491Z,85.82
2022-09-15T21:16:27.713Z,86.49
2022-09-15T21:18:57.842Z,86.07
2022-09-15T21:21:27.804Z,86.18
2022-09-15T21:23:56.995Z,85.63
2022-09-15T21:26:26.626Z,85.66
2022-09-15T21:28:55.975Z,86.09
2022-09-15T21:34:03.468Z,86.17
2022-09-15T21:36:32.132Z,86.10
2022-09-15T21:38:59.908Z,86.18
2022-09-15T21:41:30.192Z,85.87
2022-09-15T21:43:59.370Z,85.71
2022-09-15T21:46:29.534Z,85.98
2022-09-15T21:48:58.623Z,85.91
2022-09-15T21:51:27.872Z,86.25
2022-09-15T21:53:57.230Z,86.35
2022-09-15T21:56:25.880Z,86.14
2022-09-15T21:58:53.026Z,86.37
2022-09-15T22:04:03.006Z,86.11
2022-09-15T22:06:33.537Z,86.51
2022-09-15T22:09:03.171Z,86.22
2022-09-15T22:11:31.243Z,86.38
2022-09-15T22:13:58.374Z,86.69
2022-09-15T22:16:26.294Z,86.88
2022-09-15T22:18:54.084Z,86.54
2022-09-15T22:21:25.502Z,86.65
2022-09-15T22:23:54.791Z,86.37
2022-09-15T22:26:26.519Z,86.50
2022-09-15T22:28:54.487Z,86.41
2022-09-15T22:31:23.205Z,87.15
2022-09-15T22:33:51.071Z,86.83
2022-09-15T22:36:23.051Z,86.92
2022-09-15T22:38:54.812Z,86.45
2022-09-15T22:41:26.039Z,86.57
2022-09-15T22:43:53.174Z,86.83
2022-09-15T22:46:21.122Z,86.65
2022-09-15T22:48:48.492Z,86.76
2022-09-15T22:51:16.206Z,86.07
2022-09-15T22:53:43.533Z,86.83
2022-09-15T22:56:15.856Z,87.03
2022-09-15T22:58:44.458Z,86.85
2022-09-15T23:01:15.531Z,86.72
2022-09-15T23:03:51.891Z,87.62
2022-09-15T23:06:20.336Z,86.93
2022-09-15T23:08:52.849Z,86.53
2022-09-15T23:11:20.489Z,87.35
2022-09-15T23:13:47.611Z,87.00
2022-09-15T23:16:14.797Z,87.12
2022-09-15T23:18:42.118Z,87.03
2022-09-15T23:21:10.879Z,87.31
2022-09-15T23:23:40.065Z,87.41
2022-09-15T23:26:10.230Z,87.16
2022-09-15T23:28:39.305Z,87.22
2022-09-15T23:34:25.457Z,87.24
2022-09-15T23:36:52.628Z,87.37
2022-09-15T23:39:19.795Z,87.34
2022-09-15T23:41:46.959Z,87.28
2022-09-15T23:44:14.130Z,87.35
2022-09-15T23:46:41.796Z,87.16
2022-09-15T23:49:09.070Z,87.12
2022-09-15T23:51:36.275Z,87.27
2022-09-15T23:54:04.943Z,87.21
2022-09-15T23:56:33.785Z,87.20
2022-09-15T23:59:01.029Z,87.47
